Baton Rouge Metropolitan, Ryan Field
KBTR : rendu visible

Aérodrome :











RETROUVEZ-NOUS SUR...

 
LOGIN :

S'inscrire | Disclaimer

   EN    FR    IT 

 









Légende :    VFR   VFR Marginal   IFR   IFR Intensif   IFR Très Intensif
Visi : 
Plafond : 
>= 8 km
>= 3000ft
5 à 8 km
1000 à 3000 ft
1500m à 5 km
500 à 1000 ft
800 à 1500m
200 à 500 ft
< 800m
< 200 ft
Symboles :   Orages  Brouillard  Fortes neiges  Fortes précipitations  Vent > 20 kt






- Altitude de l'aérodrome : 70 ft
- Code IATA : BTR


KBTR - Baton Rouge Metropolitan, Ryan Field

DERNIER METAR :
  • 220653Z AUTO 07009KT 10SM OVC018 20/17 A3006 RMK AO2 SLP178 T02000167

METARs EXPIRÉS :
  • 220622Z AUTO 07012KT 10SM BKN018 OVC033 20/17 A3006 RMK AO2 T02000167
  • 220604Z AUTO 07010KT 10SM SCT019 OVC030 20/17 A3006 RMK AO2 T02000172
  • 220553Z AUTO 07011KT 10SM BKN019 OVC029 20/17 A3007 RMK AO2 SLP180 T02000172 10211 20200 402280194 58004
  • 220453Z AUTO 07009KT 10SM OVC017 21/18 A3009 RMK AO2 SLP187 T02060178
  • 220437Z AUTO 07009KT 10SM OVC015 21/18 A3009 RMK AO2 T02060178
  • 220418Z AUTO 08010KT 10SM OVC014 21/18 A3009 RMK AO2 T02060183

TAF KBTR
Valide du 22 à 06h jusqu'au 23 à 06h UTC


220520Z 2206/2306 07012KT 6SM -RA BR OVC015
FM220800 08014G21KT 4SM RA BR OVC008
FM221500 09012G18KT 2SM RA BR OVC005
FIR KZHU / Amérique du Nord



MET'MAP, la Météo Aéronautique d'un coup d'oeil ! - Copyright ORBIFLY Décembre 2007 - Disclaimer

ORBIFLY MET'MAP TEAM :

Programmation & Développement : Alexandra Zaïnal
Sur une idée originale de : Baudouin d'Aumeries
Assistance à la programmation : Marc-Olivier Méhu
Soutien technique & logistique : Manuel Goepfert

Contact : metmap@orbifly.com




SOURCES & CREDITS :

   NOAA       Earth
Advisory